createdAt,value
2022-11-29T00:01:16.526Z,19.70
2022-11-29T00:03:44.694Z,19.57
2022-11-29T00:06:14.437Z,20.77
2022-11-29T00:08:42.453Z,20.07
2022-11-29T00:11:14.012Z,19.53
2022-11-29T00:13:41.981Z,20.10
2022-11-29T00:16:12.138Z,19.57
2022-11-29T00:18:39.823Z,19.97
2022-11-29T00:21:08.600Z,19.03
2022-11-29T00:23:36.824Z,19.20
2022-11-29T00:26:05.505Z,20.43
2022-11-29T00:28:34.958Z,20.10
2022-11-29T00:31:02.665Z,20.20
2022-11-29T00:33:30.306Z,19.53
2022-11-29T00:36:02.309Z,19.17
2022-11-29T00:38:29.987Z,19.27
2022-11-29T00:40:57.612Z,19.80
2022-11-29T00:43:25.255Z,19.70
2022-11-29T00:45:54.312Z,20.07
2022-11-29T00:48:22.083Z,19.90
2022-11-29T00:50:49.765Z,19.70
2022-11-29T00:53:17.529Z,20.83
2022-11-29T00:55:45.280Z,20.20
2022-11-29T00:58:12.946Z,19.70
2022-11-29T01:00:40.635Z,19.20
2022-11-29T01:03:09.675Z,19.63
2022-11-29T01:05:37.364Z,20.10
2022-11-29T01:08:05.220Z,17.80
2022-11-29T01:10:33.474Z,18.63
2022-11-29T01:13:01.187Z,19.43
2022-11-29T01:15:29.473Z,19.00
2022-11-29T01:17:57.111Z,18.43
2022-11-29T01:20:26.294Z,19.67
2022-11-29T01:22:54.120Z,19.53
2022-11-29T01:25:21.758Z,18.13
2022-11-29T01:27:49.369Z,18.80
2022-11-29T01:30:17.251Z,18.83
2022-11-29T01:32:44.915Z,18.80
2022-11-29T01:35:12.530Z,18.83
2022-11-29T01:37:41.620Z,18.80
2022-11-29T01:40:09.936Z,18.70
2022-11-29T01:42:37.636Z,18.03
2022-11-29T01:45:16.136Z,18.13
2022-11-29T01:47:47.591Z,17.43
2022-11-29T01:50:15.520Z,18.13
2022-11-29T01:52:45.347Z,18.00
2022-11-29T01:55:13.770Z,18.13
2022-11-29T01:57:42.567Z,19.23
2022-11-29T02:00:12.891Z,17.73
2022-11-29T02:02:45.240Z,18.10
2022-11-29T02:05:15.808Z,18.17
2022-11-29T02:07:47.352Z,18.03
2022-11-29T02:10:16.408Z,18.10
2022-11-29T02:12:54.413Z,18.43
2022-11-29T02:15:43.341Z,18.43
2022-11-29T02:18:14.697Z,18.20
2022-11-29T02:21:17.446Z,17.90
2022-11-29T02:24:16.071Z,18.17
2022-11-29T02:27:03.570Z,18.83
2022-11-29T02:29:48.402Z,18.37
2022-11-29T02:32:35.244Z,20.23
2022-11-29T02:35:17.639Z,19.10
2022-11-29T02:38:04.647Z,20.73
2022-11-29T02:40:54.725Z,19.00
2022-11-29T02:44:07.418Z,19.37
2022-11-29T02:46:48.069Z,18.83
2022-11-29T02:49:28.550Z,19.73
2022-11-29T02:52:01.786Z,18.53
2022-11-29T02:54:37.673Z,19.60
2022-11-29T02:57:15.524Z,18.97
2022-11-29T02:59:51.756Z,18.37
2022-11-29T03:02:28.320Z,18.90
2022-11-29T03:05:04.423Z,18.67
2022-11-29T03:07:40.170Z,18.00
2022-11-29T03:10:18.920Z,17.43
2022-11-29T03:12:50.005Z,18.17
2022-11-29T03:15:28.233Z,18.70
2022-11-29T03:18:21.146Z,18.93
2022-11-29T03:21:05.395Z,17.57
2022-11-29T03:23:38.876Z,19.13
2022-11-29T03:26:11.536Z,19.03
2022-11-29T03:28:44.484Z,19.13
2022-11-29T03:31:17.193Z,17.87
2022-11-29T03:33:52.431Z,18.53
2022-11-29T03:36:34.656Z,18.77
2022-11-29T03:39:06.319Z,19.07
2022-11-29T03:41:40.234Z,18.87
2022-11-29T03:44:14.013Z,18.67
2022-11-29T03:46:49.199Z,18.63
2022-11-29T03:49:21.813Z,17.70
2022-11-29T03:52:01.075Z,18.57
2022-11-29T03:54:36.043Z,18.87
2022-11-29T03:57:04.554Z,18.70
2022-11-29T03:59:56.211Z,18.73
2022-11-29T04:03:06.476Z,18.57
2022-11-29T04:06:03.341Z,18.80
2022-11-29T04:09:00.962Z,19.57
2022-11-29T04:12:05.072Z,18.53
2022-11-29T04:14:41.598Z,19.77
2022-11-29T04:17:58.707Z,19.70
2022-11-29T04:20:51.959Z,19.97
2022-11-29T04:23:48.166Z,20.20
2022-11-29T04:26:48.277Z,19.60
2022-11-29T04:29:37.415Z,19.30
2022-11-29T04:32:27.499Z,19.23
2022-11-29T04:35:11.320Z,19.33
2022-11-29T04:38:12.342Z,19.47
2022-11-29T04:40:57.290Z,19.83
2022-11-29T04:43:52.799Z,18.73
2022-11-29T04:46:37.704Z,19.33
2022-11-29T04:49:41.143Z,19.67
2022-11-29T04:52:35.893Z,21.83
2022-11-29T04:55:22.729Z,20.27
2022-11-29T04:58:01.165Z,19.70
2022-11-29T05:00:36.281Z,19.57
2022-11-29T05:03:12.685Z,19.27
2022-11-29T05:05:48.703Z,19.53
2022-11-29T05:08:29.417Z,21.47
2022-11-29T05:11:06.755Z,20.47
2022-11-29T05:13:43.991Z,20.67
2022-11-29T05:16:27.392Z,21.33
2022-11-29T05:19:30.577Z,20.63
2022-11-29T05:22:10.211Z,20.30
2022-11-29T05:24:53.721Z,20.80
2022-11-29T05:27:34.443Z,21.40
2022-11-29T05:30:07.152Z,20.00
2022-11-29T05:32:39.459Z,20.17
2022-11-29T05:35:33.962Z,21.67
2022-11-29T05:38:11.452Z,22.13
2022-11-29T05:40:47.174Z,21.37
2022-11-29T05:43:31.156Z,21.30
2022-11-29T05:46:07.013Z,19.63
2022-11-29T05:48:45.323Z,19.77
2022-11-29T05:51:22.398Z,22.03
2022-11-29T05:54:01.641Z,20.13
2022-11-29T05:56:41.681Z,20.07
2022-11-29T05:59:13.555Z,22.00
2022-11-29T06:01:49.555Z,20.90
2022-11-29T06:04:24.452Z,22.00
2022-11-29T06:07:03.735Z,21.33
2022-11-29T06:09:38.038Z,22.03
2022-11-29T06:12:16.998Z,21.57
2022-11-29T06:15:13.737Z,21.40
2022-11-29T06:18:03.275Z,21.83
2022-11-29T06:20:55.476Z,20.47
2022-11-29T06:23:54.400Z,21.40
2022-11-29T06:27:02.310Z,20.10
2022-11-29T06:29:39.282Z,20.37
2022-11-29T06:32:19.750Z,21.33
2022-11-29T06:34:55.064Z,21.03
2022-11-29T06:37:27.866Z,20.50
2022-11-29T06:39:57.466Z,19.47
2022-11-29T06:42:25.230Z,19.33
2022-11-29T06:44:53.428Z,19.37
2022-11-29T06:47:29.058Z,19.13
2022-11-29T06:50:04.063Z,20.20
2022-11-29T06:52:43.437Z,18.80
2022-11-29T06:55:19.026Z,20.43
2022-11-29T06:58:04.123Z,20.73
2022-11-29T07:00:41.894Z,19.50
2022-11-29T07:03:34.480Z,19.40
2022-11-29T07:06:10.040Z,19.30
2022-11-29T07:08:38.959Z,19.77
2022-11-29T07:11:10.486Z,19.23
2022-11-29T07:13:38.869Z,21.03
2022-11-29T07:16:17.840Z,20.77
2022-11-29T07:18:53.220Z,20.83
2022-11-29T07:21:27.315Z,19.27
2022-11-29T07:24:03.744Z,20.50
2022-11-29T07:26:40.438Z,19.63
2022-11-29T07:29:24.082Z,20.30
2022-11-29T07:32:04.446Z,21.37
2022-11-29T07:34:41.338Z,21.97
2022-11-29T07:37:17.695Z,19.27
2022-11-29T07:39:56.016Z,20.47
2022-11-29T07:42:32.721Z,20.20
2022-11-29T07:45:08.793Z,20.07
2022-11-29T07:47:36.519Z,19.23
2022-11-29T07:50:04.398Z,19.20
2022-11-29T07:52:32.119Z,20.37
2022-11-29T07:54:59.866Z,19.50
2022-11-29T07:57:29.061Z,20.30
2022-11-29T07:59:56.743Z,19.00
2022-11-29T08:02:28.862Z,19.07
2022-11-29T08:04:56.792Z,19.87
2022-11-29T08:07:25.086Z,18.73
2022-11-29T08:09:52.912Z,19.43
2022-11-29T08:12:20.801Z,20.93
2022-11-29T08:14:49.835Z,22.73
2022-11-29T08:17:18.668Z,32.97
2022-11-29T08:19:46.464Z,20.13
2022-11-29T08:22:14.253Z,22.40
2022-11-29T08:24:41.978Z,20.30
2022-11-29T08:27:09.742Z,20.87
2022-11-29T08:29:37.481Z,20.20
2022-11-29T08:32:07.134Z,20.03
2022-11-29T08:34:34.952Z,21.60
2022-11-29T08:37:02.637Z,19.10
2022-11-29T08:39:30.474Z,21.20
2022-11-29T08:41:58.596Z,20.27
2022-11-29T08:44:26.312Z,20.37
2022-11-29T08:47:11.734Z,19.43
2022-11-29T08:50:01.109Z,21.40
2022-11-29T08:52:46.086Z,19.43
2022-11-29T08:55:13.886Z,20.07
2022-11-29T08:57:41.706Z,20.90
2022-11-29T09:00:10.595Z,19.90
2022-11-29T09:02:38.680Z,19.87
2022-11-29T09:05:09.444Z,19.57
2022-11-29T09:07:37.458Z,20.87
2022-11-29T09:10:08.110Z,20.83
2022-11-29T09:12:36.608Z,18.60
2022-11-29T09:15:04.978Z,19.30
2022-11-29T09:17:32.933Z,20.03
2022-11-29T09:20:00.761Z,18.60
2022-11-29T09:22:29.838Z,19.03
2022-11-29T09:24:57.590Z,18.80
2022-11-29T09:27:25.234Z,17.90
2022-11-29T09:29:52.921Z,17.70
2022-11-29T09:32:20.536Z,18.23
2022-11-29T09:34:48.539Z,17.23
2022-11-29T09:37:16.337Z,17.77
2022-11-29T09:39:45.662Z,18.70
2022-11-29T09:42:28.008Z,20.37
2022-11-29T09:45:04.587Z,17.13
2022-11-29T09:47:56.258Z,17.53
2022-11-29T09:50:32.400Z,17.10
2022-11-29T09:53:18.637Z,18.23
2022-11-29T09:56:01.052Z,17.97
2022-11-29T09:58:33.933Z,16.53
2022-11-29T10:01:06.399Z,16.73
2022-11-29T10:03:39.312Z,17.93
2022-11-29T10:06:14.347Z,18.33
2022-11-29T10:08:49.291Z,17.23
2022-11-29T10:11:23.173Z,17.97
2022-11-29T10:13:54.836Z,20.23
2022-11-29T10:16:29.469Z,18.20
2022-11-29T10:19:06.060Z,18.40
2022-11-29T10:21:37.521Z,18.47
2022-11-29T10:24:10.835Z,18.20
2022-11-29T10:26:39.921Z,17.47
2022-11-29T10:29:07.690Z,18.10
2022-11-29T10:31:40.125Z,16.20
2022-11-29T10:34:14.395Z,16.83
2022-11-29T10:36:45.517Z,15.77
2022-11-29T10:39:17.591Z,16.60
2022-11-29T10:41:46.943Z,16.03
2022-11-29T10:44:15.987Z,15.83
2022-11-29T10:46:43.986Z,17.27
2022-11-29T10:49:15.463Z,17.00
2022-11-29T10:51:43.616Z,17.20
2022-11-29T10:54:22.625Z,16.70
2022-11-29T10:56:53.115Z,18.17
2022-11-29T10:59:23.352Z,16.53
2022-11-29T11:01:51.877Z,16.77
2022-11-29T11:04:28.773Z,16.67
2022-11-29T11:07:00.961Z,17.23
2022-11-29T11:09:34.206Z,16.40
2022-11-29T11:12:06.869Z,16.30
2022-11-29T11:14:37.512Z,15.63
2022-11-29T11:17:21.834Z,16.03
2022-11-29T11:19:57.992Z,15.90
2022-11-29T11:22:27.113Z,17.47
2022-11-29T11:25:01.032Z,15.40
2022-11-29T11:27:32.443Z,16.23
2022-11-29T11:30:01.411Z,15.23
2022-11-29T11:32:29.290Z,19.47
2022-11-29T11:34:59.125Z,15.17
2022-11-29T11:37:28.587Z,16.00
2022-11-29T11:39:58.410Z,15.93
2022-11-29T11:42:38.269Z,14.93
2022-11-29T11:45:24.200Z,14.97
2022-11-29T11:47:53.923Z,16.30
2022-11-29T11:50:29.931Z,17.13
2022-11-29T11:52:59.379Z,15.30
2022-11-29T11:55:33.237Z,15.40
2022-11-29T11:58:09.716Z,14.37
2022-11-29T12:03:36.895Z,17.43
2022-11-29T12:06:18.706Z,17.00
2022-11-29T12:08:48.497Z,13.73
2022-11-29T12:11:19.380Z,12.50
2022-11-29T12:13:51.840Z,12.20
2022-11-29T12:16:28.525Z,13.23
2022-11-29T12:19:00.401Z,15.40
2022-11-29T12:21:34.470Z,14.77
2022-11-29T12:24:09.278Z,12.70
2022-11-29T12:26:57.672Z,12.80
2022-11-29T12:29:30.280Z,13.97
2022-11-29T12:32:18.985Z,12.03
2022-11-29T12:35:02.959Z,13.17
2022-11-29T12:37:36.698Z,12.50
2022-11-29T12:40:12.158Z,14.13
2022-11-29T12:42:49.383Z,16.07
2022-11-29T12:45:30.203Z,12.37
2022-11-29T12:48:10.704Z,12.73
2022-11-29T12:50:47.427Z,12.37
2022-11-29T12:53:28.550Z,12.83
2022-11-29T12:56:08.356Z,13.97
2022-11-29T12:58:46.655Z,13.53
2022-11-29T13:01:26.122Z,13.40
2022-11-29T13:04:00.244Z,14.40
2022-11-29T13:06:35.566Z,15.93
2022-11-29T13:09:47.623Z,14.30
2022-11-29T13:12:22.053Z,13.70
2022-11-29T13:14:56.729Z,14.87
2022-11-29T13:17:32.531Z,14.97
2022-11-29T13:20:11.522Z,15.33
2022-11-29T13:22:47.537Z,15.87
2022-11-29T13:25:19.511Z,14.63
2022-11-29T13:27:54.843Z,14.70
2022-11-29T13:30:23.021Z,16.27
2022-11-29T13:32:58.487Z,14.60
2022-11-29T13:35:37.268Z,15.70
2022-11-29T13:38:14.513Z,15.83
2022-11-29T13:40:55.370Z,16.33
2022-11-29T13:43:30.784Z,16.20
2022-11-29T13:46:08.319Z,15.60
2022-11-29T13:48:47.807Z,15.67
2022-11-29T13:51:26.809Z,15.63
2022-11-29T13:53:56.072Z,16.47
2022-11-29T13:56:36.629Z,14.57
2022-11-29T13:59:08.787Z,14.73
2022-11-29T14:01:48.318Z,15.47
2022-11-29T14:04:25.907Z,14.07
2022-11-29T14:07:14.287Z,13.77
2022-11-29T14:09:51.167Z,14.17
2022-11-29T14:12:35.789Z,13.87
2022-11-29T14:15:17.363Z,13.80
2022-11-29T14:17:56.602Z,14.30
2022-11-29T14:20:58.174Z,16.37
2022-11-29T14:23:36.317Z,15.03
2022-11-29T14:26:28.731Z,14.10
2022-11-29T14:28:57.927Z,14.70
2022-11-29T14:31:52.382Z,15.30
2022-11-29T14:34:46.073Z,14.27
2022-11-29T14:37:29.789Z,15.87
2022-11-29T14:40:02.369Z,15.50
2022-11-29T14:42:30.696Z,17.43
2022-11-29T14:45:01.547Z,14.37
2022-11-29T14:47:35.038Z,13.23
2022-11-29T14:50:07.420Z,14.37
2022-11-29T14:52:38.910Z,14.87
2022-11-29T14:55:28.910Z,15.63
2022-11-29T14:58:07.677Z,16.27
2022-11-29T15:00:55.268Z,15.37
2022-11-29T15:03:31.729Z,15.67
2022-11-29T15:06:02.095Z,14.37
2022-11-29T15:08:35.584Z,13.60
2022-11-29T15:11:14.532Z,13.17
2022-11-29T15:13:56.039Z,13.40
2022-11-29T15:16:36.445Z,14.27
2022-11-29T15:19:36.589Z,13.73
2022-11-29T15:22:09.754Z,14.10
2022-11-29T15:24:51.854Z,14.73
2022-11-29T15:27:21.526Z,13.60
2022-11-29T15:29:50.463Z,15.07
2022-11-29T15:32:23.960Z,15.07
2022-11-29T15:34:53.832Z,15.90
2022-11-29T15:37:27.113Z,14.83
2022-11-29T15:40:05.799Z,15.30
2022-11-29T15:42:42.548Z,15.53
2022-11-29T15:45:32.888Z,15.17
2022-11-29T15:48:16.728Z,14.17
2022-11-29T15:50:51.029Z,15.10
2022-11-29T15:53:23.444Z,15.87
2022-11-29T15:55:55.130Z,15.87
2022-11-29T15:58:26.317Z,16.80
2022-11-29T16:00:55.311Z,16.20
2022-11-29T16:03:26.224Z,17.17
2022-11-29T16:06:02.585Z,15.43
2022-11-29T16:08:34.124Z,16.13
2022-11-29T16:11:02.188Z,15.10
2022-11-29T16:13:35.631Z,16.27
2022-11-29T16:16:07.748Z,16.67
2022-11-29T16:18:36.056Z,15.40
2022-11-29T16:21:06.411Z,14.90
2022-11-29T16:23:35.291Z,21.93
2022-11-29T16:26:14.232Z,21.20
2022-11-29T16:28:45.434Z,15.33
2022-11-29T16:31:18.100Z,16.50
2022-11-29T16:33:47.436Z,15.50
2022-11-29T16:36:18.285Z,15.43
2022-11-29T16:38:47.868Z,14.53
2022-11-29T16:41:24.771Z,13.97
2022-11-29T16:43:57.441Z,15.53
2022-11-29T16:46:34.343Z,13.30
2022-11-29T16:49:04.269Z,13.83
2022-11-29T16:51:39.740Z,13.93
2022-11-29T16:54:23.652Z,14.53
2022-11-29T16:56:52.822Z,13.60
2022-11-29T16:59:27.370Z,14.47
2022-11-29T17:01:56.467Z,14.10
2022-11-29T17:04:25.002Z,11.83
2022-11-29T17:06:53.422Z,10.47
2022-11-29T17:09:24.986Z,10.37
2022-11-29T17:11:53.320Z,11.27
2022-11-29T17:14:22.800Z,10.03
2022-11-29T17:16:51.854Z,11.20
2022-11-29T17:19:23.992Z,10.57
2022-11-29T17:21:52.701Z,10.50
2022-11-29T17:24:23.168Z,9.40
2022-11-29T17:26:51.626Z,9.50
2022-11-29T17:29:20.098Z,9.60
2022-11-29T17:31:50.523Z,9.63
2022-11-29T17:34:18.805Z,9.60
2022-11-29T17:36:46.694Z,8.87
2022-11-29T17:39:15.570Z,9.63
2022-11-29T17:41:43.548Z,10.13
2022-11-29T17:44:11.412Z,9.87
2022-11-29T17:46:39.408Z,9.87
2022-11-29T17:49:10.303Z,9.87
2022-11-29T17:51:55.462Z,9.80
2022-11-29T17:54:23.760Z,10.27
2022-11-29T17:56:51.863Z,10.87
2022-11-29T17:59:20.446Z,11.50
2022-11-29T18:01:48.477Z,11.23
2022-11-29T18:04:19.259Z,10.50
2022-11-29T18:06:50.226Z,10.67
2022-11-29T18:09:19.485Z,10.67
2022-11-29T18:11:49.925Z,11.17
2022-11-29T18:14:20.757Z,10.30
2022-11-29T18:16:48.937Z,10.40
2022-11-29T18:19:19.939Z,9.83
2022-11-29T18:21:47.707Z,10.97
2022-11-29T18:24:15.672Z,12.93
2022-11-29T18:26:43.573Z,12.33
2022-11-29T18:29:11.407Z,11.47
2022-11-29T18:31:41.658Z,11.23
2022-11-29T18:34:11.058Z,10.10
2022-11-29T18:36:43.395Z,11.33
2022-11-29T18:39:14.961Z,10.77
2022-11-29T18:41:43.753Z,12.07
2022-11-29T18:44:13.757Z,12.13
2022-11-29T18:46:47.455Z,11.43
2022-11-29T18:49:16.861Z,13.07
2022-11-29T18:51:46.996Z,10.40
2022-11-29T18:54:15.838Z,11.47
2022-11-29T18:56:44.372Z,11.03
2022-11-29T18:59:16.462Z,12.17
2022-11-29T19:01:46.181Z,12.00
2022-11-29T19:04:15.888Z,12.23
2022-11-29T19:06:45.078Z,12.00
2022-11-29T19:09:14.754Z,12.50
2022-11-29T19:11:42.891Z,13.37
2022-11-29T19:14:12.879Z,12.60
2022-11-29T19:16:42.437Z,11.97
2022-11-29T19:19:10.216Z,12.33
2022-11-29T19:21:39.610Z,11.93
2022-11-29T19:24:14.832Z,12.00
2022-11-29T19:26:44.793Z,11.37
2022-11-29T19:29:13.141Z,11.60
2022-11-29T19:31:41.244Z,11.40
2022-11-29T19:34:09.177Z,12.10
2022-11-29T19:36:42.597Z,12.53
2022-11-29T19:39:13.948Z,13.33
2022-11-29T19:41:43.298Z,13.67
2022-11-29T19:44:11.653Z,12.57
2022-11-29T19:46:41.636Z,12.87
2022-11-29T19:49:10.201Z,13.93
2022-11-29T19:51:38.570Z,13.73
2022-11-29T19:54:08.227Z,14.23
2022-11-29T19:56:38.075Z,15.50
2022-11-29T19:59:07.412Z,14.47
2022-11-29T20:01:40.711Z,14.63
2022-11-29T20:04:09.509Z,14.57
2022-11-29T20:06:37.563Z,14.17
2022-11-29T20:09:06.365Z,15.33
2022-11-29T20:11:34.126Z,14.97
2022-11-29T20:14:05.308Z,15.00
2022-11-29T20:16:33.801Z,14.30
2022-11-29T20:19:01.765Z,14.27
2022-11-29T20:21:31.192Z,13.43
2022-11-29T20:24:00.498Z,13.87
2022-11-29T20:26:29.275Z,14.97
2022-11-29T20:28:57.051Z,15.70
2022-11-29T20:31:26.574Z,14.87
2022-11-29T20:33:57.304Z,15.43
2022-11-29T20:36:40.598Z,15.23
2022-11-29T20:39:17.581Z,15.60
2022-11-29T20:41:53.875Z,15.27
2022-11-29T20:44:26.678Z,13.93
2022-11-29T20:46:56.237Z,14.80
2022-11-29T20:49:24.486Z,13.43
2022-11-29T20:51:56.800Z,13.43
2022-11-29T20:54:24.539Z,14.20
2022-11-29T20:56:52.262Z,13.30
2022-11-29T20:59:19.970Z,13.87
2022-11-29T21:01:47.760Z,14.10
2022-11-29T21:04:22.903Z,13.13
2022-11-29T21:06:51.272Z,13.53
2022-11-29T21:09:18.956Z,13.50
2022-11-29T21:11:47.083Z,13.70
2022-11-29T21:14:15.489Z,13.73
2022-11-29T21:16:43.647Z,14.33
2022-11-29T21:19:17.087Z,14.20
2022-11-29T21:21:58.704Z,13.50
2022-11-29T21:24:40.704Z,14.10
2022-11-29T21:27:14.737Z,14.53
2022-11-29T21:29:43.093Z,15.03
2022-11-29T21:32:21.739Z,14.50
2022-11-29T21:34:50.175Z,14.23
2022-11-29T21:37:21.547Z,14.57
2022-11-29T21:39:51.483Z,14.93
2022-11-29T21:42:19.486Z,14.07
2022-11-29T21:44:47.558Z,13.80
2022-11-29T21:47:15.901Z,13.60
2022-11-29T21:49:43.687Z,14.27
2022-11-29T21:52:19.020Z,14.10
2022-11-29T21:54:51.704Z,13.87
2022-11-29T21:57:19.468Z,13.47
2022-11-29T21:59:47.275Z,14.17
2022-11-29T22:02:15.193Z,13.60
2022-11-29T22:04:43.788Z,13.93
2022-11-29T22:07:11.718Z,14.33
2022-11-29T22:09:39.708Z,12.77
2022-11-29T22:12:32.539Z,12.70
2022-11-29T22:14:57.516Z,12.13
2022-11-29T22:17:25.387Z,11.70
2022-11-29T22:19:53.053Z,12.37
2022-11-29T22:22:20.871Z,13.00
2022-11-29T22:24:48.855Z,11.37
2022-11-29T22:27:18.585Z,11.10
2022-11-29T22:29:46.423Z,11.13
2022-11-29T22:32:14.187Z,11.37
2022-11-29T22:34:42.202Z,11.37
2022-11-29T22:37:12.427Z,11.57
2022-11-29T22:39:40.168Z,12.17
2022-11-29T22:42:08.092Z,10.83
2022-11-29T22:44:37.322Z,11.43
2022-11-29T22:47:05.124Z,10.93
2022-11-29T22:49:33.318Z,11.90
2022-11-29T22:52:01.180Z,11.50
2022-11-29T22:54:28.962Z,12.00
2022-11-29T22:56:56.754Z,10.67
2022-11-29T22:59:24.545Z,13.07
2022-11-29T23:01:53.740Z,11.90
2022-11-29T23:04:21.561Z,11.77
2022-11-29T23:06:49.458Z,12.47
2022-11-29T23:09:21.663Z,12.23
2022-11-29T23:11:52.108Z,11.57
2022-11-29T23:14:20.456Z,11.83
2022-11-29T23:16:48.407Z,11.10
2022-11-29T23:19:18.338Z,11.37
2022-11-29T23:21:46.532Z,10.73
2022-11-29T23:24:15.131Z,12.63
2022-11-29T23:26:45.384Z,11.20
2022-11-29T23:29:15.314Z,12.73
2022-11-29T23:31:43.641Z,11.57
2022-11-29T23:34:11.533Z,10.73
2022-11-29T23:36:40.933Z,10.43
2022-11-29T23:39:08.986Z,10.53
2022-11-29T23:41:37.927Z,10.80
2022-11-29T23:44:06.567Z,10.90
2022-11-29T23:46:37.237Z,11.13
2022-11-29T23:49:05.066Z,11.67
2022-11-29T23:51:32.793Z,13.03
2022-11-29T23:54:01.899Z,10.73
2022-11-29T23:56:35.036Z,11.80
2022-11-29T23:59:02.691Z,9.70
